Time;durP1;ratioP1;P1;durP2;ratioP2;P2;SDS_P1;SDS_P2;PMS_P1;PMS_P2;Temp;Humidity;BMP_temperature;BMP_pressure;BME280_temperature;BME280_humidity;BME280_pressure;Samples;Min_cycle;Max_cycle;Signal;HPM_P1;HPM_P2
2022/11/20 00:00:04;;;;;;;0.40;0.40;;;-1.40;99.90;;;;;;5031798;28;20457;-73
2022/11/20 00:02:30;;;;;;;0.80;0.80;;;-1.60;99.90;;;;;;5031754;28;20450;-73
2022/11/20 00:04:56;;;;;;;3.33;1.97;;;;;;;;;;5031767;28;20120;-73
2022/11/20 00:07:21;;;;;;;0.40;0.40;;;-1.30;99.90;;;;;;5033021;28;20089;-73
2022/11/20 00:09:47;;;;;;;0.40;0.40;;;-1.20;99.90;;;;;;5033119;28;20405;-73
2022/11/20 00:12:13;;;;;;;0.40;0.40;;;;;;;;;;5031720;28;20026;-73
2022/11/20 00:14:38;;;;;;;0.45;0.45;;;-0.90;99.90;;;;;;5033403;28;20038;-73
2022/11/20 00:17:04;;;;;;;0.77;0.77;;;-1.40;99.90;;;;;;5032929;28;20036;-73
2022/11/20 00:19:30;;;;;;;0.53;0.53;;;-1.80;99.90;;;;;;5031575;28;20069;-73
2022/11/20 00:21:56;;;;;;;1.90;1.80;;;;;;;;;;5033443;28;20229;-74
2022/11/20 00:24:21;;;;;;;0.95;0.95;;;-1.80;99.90;;;;;;5033152;28;20037;-73
2022/11/20 00:26:47;;;;;;;0.47;0.47;;;-1.70;99.90;;;;;;5031744;28;20067;-73
2022/11/20 00:29:12;;;;;;;1.17;1.17;;;-1.70;99.90;;;;;;5033043;28;20032;-73
2022/11/20 00:31:38;;;;;;;0.97;0.97;;;-1.90;99.90;;;;;;5032476;28;20051;-73
2022/11/20 00:34:04;;;;;;;2.50;2.30;;;;;;;;;;5031039;28;20022;-73
2022/11/20 00:36:33;;;;;;;0.75;0.75;;;-2.00;99.90;;;;;;5031227;28;20029;-73
2022/11/20 00:38:59;;;;;;;0.40;0.40;;;-1.90;99.90;;;;;;5032425;28;20040;-73
2022/11/20 00:41:26;;;;;;;1.92;1.77;;;-1.70;99.90;;;;;;5031359;28;20028;-73
2022/11/20 00:43:53;;;;;;;1.60;1.50;;;-1.60;99.90;;;;;;5032648;28;20475;-73
2022/11/20 00:46:21;;;;;;;0.50;0.50;;;-1.70;99.90;;;;;;5031570;28;20038;-73
2022/11/20 00:48:47;;;;;;;0.35;0.35;;;;;;;;;;5030443;28;20026;-73
2022/11/20 00:51:15;;;;;;;0.50;0.50;;;-1.30;99.90;;;;;;5032917;28;20051;-74
2022/11/20 00:53:41;;;;;;;2.25;2.05;;;-2.00;99.90;;;;;;5031066;28;20064;-74
2022/11/20 00:56:10;;;;;;;3.28;1.90;;;-1.80;99.90;;;;;;5032413;28;20116;-74
2022/11/20 00:58:38;;;;;;;0.50;0.50;;;-1.80;99.90;;;;;;5032412;28;20034;-74
2022/11/20 01:01:18;;;;;;;0.40;0.40;;;-1.70;99.90;;;;;;5032860;28;20049;-74
2022/11/20 01:03:49;;;;;;;1.55;1.45;;;-1.30;99.90;;;;;;5030519;28;20388;-73
2022/11/20 01:06:14;;;;;;;1.20;1.20;;;;;;;;;;5031763;28;20493;-74
2022/11/20 01:08:40;;;;;;;0.40;0.40;;;-1.50;99.90;;;;;;5030513;28;20323;-73
2022/11/20 01:11:09;;;;;;;2.75;2.55;;;-1.60;99.90;;;;;;5031641;28;20041;-74
2022/11/20 01:13:38;;;;;;;0.50;0.50;;;-1.80;99.90;;;;;;5030559;28;20052;-73
2022/11/20 01:16:13;;;;;;;0.50;0.50;;;-1.40;99.90;;;;;;5032316;28;20104;-73
2022/11/20 01:18:42;;;;;;;2.33;1.75;;;-1.60;99.90;;;;;;5031863;28;20487;-73
2022/11/20 01:21:13;;;;;;;0.60;0.60;;;-1.60;99.90;;;;;;5032094;28;20111;-73
2022/11/20 01:23:41;;;;;;;1.85;1.38;;;-1.40;99.90;;;;;;5030111;28;20037;-72
2022/11/20 01:26:16;;;;;;;1.05;1.05;;;-1.50;99.90;;;;;;5032039;28;20045;-73
2022/11/20 01:28:42;;;;;;;0.77;0.77;;;;;;;;;;5031581;28;20017;-73
2022/11/20 01:31:17;;;;;;;1.58;1.48;;;;;;;;;;5030265;28;20068;-74
2022/11/20 01:33:44;;;;;;;0.40;0.40;;;-0.60;99.90;;;;;;5029867;28;20079;-73
2022/11/20 01:36:11;;;;;;;0.63;0.63;;;;;;;;;;5031770;28;20109;-73
2022/11/20 01:38:37;;;;;;;0.43;0.43;;;;;;;;;;5031405;28;20076;-73
2022/11/20 01:41:03;;;;;;;0.50;0.50;;;-1.60;99.90;;;;;;5031819;28;20340;-73
2022/11/20 01:43:29;;;;;;;1.17;1.13;;;-1.30;99.90;;;;;;5031089;28;20030;-73
2022/11/20 01:45:54;;;;;;;0.82;0.82;;;-1.40;99.90;;;;;;5030060;28;20124;-73
2022/11/20 01:48:22;;;;;;;0.70;0.70;;;-1.60;99.90;;;;;;5031190;28;20025;-73
2022/11/20 01:50:48;;;;;;;1.15;1.15;;;;;;;;;;5031667;28;20381;-73
2022/11/20 01:53:18;;;;;;;0.80;0.80;;;-1.30;99.90;;;;;;5029620;28;20449;-73
2022/11/20 01:55:48;;;;;;;0.77;0.77;;;;;;;;;;5031457;28;20484;-73
2022/11/20 01:58:15;;;;;;;0.50;0.50;;;-1.50;99.90;;;;;;5030715;28;20056;-73
2022/11/20 02:00:41;;;;;;;0.98;0.98;;;;;;;;;;5030475;28;20131;-73
2022/11/20 02:03:14;;;;;;;0.40;0.40;;;;;;;;;;5031180;28;20037;-73
2022/11/20 02:06:01;;;;;;;0.40;0.40;;;-1.50;99.90;;;;;;5031268;28;20532;-74
2022/11/20 02:08:27;;;;;;;1.80;1.67;;;;;;;;;;5030785;28;20021;-74
2022/11/20 02:10:53;;;;;;;0.55;0.55;;;;;;;;;;5030554;28;20076;-74
2022/11/20 02:16:03;;;;;;;0.40;0.40;;;;;;;;;;5030729;28;20443;-74
2022/11/20 02:18:30;;;;;;;0.60;0.60;;;;;;;;;;5030667;28;20392;-74
2022/11/20 02:20:56;;;;;;;;;;;;;;;;;;5029870;28;20129;-73
2022/11/20 02:23:28;;;;;;;0.40;0.40;;;;;;;;;;5030344;28;19913;-73
2022/11/20 02:25:55;;;;;;;0.95;0.95;;;-1.30;99.90;;;;;;5029173;28;20038;-74
2022/11/20 02:28:21;;;;;;;;;;;;;;;;;;5030788;28;20385;-74
2022/11/20 02:30:47;;;;;;;0.80;0.80;;;;;;;;;;5030656;28;19936;-74
2022/11/20 02:33:13;;;;;;;0.40;0.40;;;;;;;;;;5030624;28;20136;-74
2022/11/20 02:35:44;;;;;;;0.40;0.40;;;-1.10;99.90;;;;;;5029076;28;20452;-74
2022/11/20 02:38:10;;;;;;;0.50;0.50;;;;;;;;;;5028877;28;20100;-73
2022/11/20 02:40:36;;;;;;;0.40;0.40;;;-1.00;99.90;;;;;;5028956;28;20060;-73
2022/11/20 02:43:01;;;;;;;0.60;0.60;;;-1.10;99.90;;;;;;5030179;28;20409;-73
2022/11/20 02:45:27;;;;;;;0.40;0.40;;;;;;;;;;5030389;28;20115;-73
2022/11/20 02:47:53;;;;;;;0.77;0.77;;;;;;;;;;5030197;28;20089;-73
2022/11/20 02:50:19;;;;;;;1.05;1.05;;;;;;;;;;5030262;28;20037;-73
2022/11/20 02:52:45;;;;;;;0.40;0.40;;;;;;;;;;5029926;28;20060;-73
2022/11/20 02:55:11;;;;;;;1.85;1.65;;;;;;;;;;5030187;28;20540;-74
2022/11/20 02:57:37;;;;;;;1.55;1.50;;;;;;;;;;5028531;28;20041;-73
2022/11/20 03:00:04;;;;;;;0.40;0.40;;;-1.10;99.90;;;;;;5030027;28;20037;-73
2022/11/20 03:02:31;;;;;;;0.40;0.40;;;;;;;;;;5029880;28;20032;-74
2022/11/20 03:04:56;;;;;;;;;;;-1.00;99.90;;;;;;5030136;28;20034;-74
2022/11/20 03:07:22;;;;;;;0.50;0.50;;;;;;;;;;5030238;28;19905;-74
2022/11/20 03:09:48;;;;;;;0.50;0.50;;;;;;;;;;5028093;28;20140;-73
2022/11/20 03:12:15;;;;;;;0.43;0.43;;;;;;;;;;5028570;28;20116;-73
2022/11/20 03:14:40;;;;;;;0.40;0.40;;;-1.00;99.90;;;;;;5028276;28;20047;-73
2022/11/20 03:17:06;;;;;;;0.40;0.40;;;;;;;;;;5029944;28;20109;-73
2022/11/20 03:19:32;;;;;;;0.93;0.93;;;-0.90;99.90;;;;;;5028438;28;20550;-73
2022/11/20 03:21:58;;;;;;;0.50;0.50;;;;;;;;;;5029672;28;20033;-73
2022/11/20 03:24:24;;;;;;;2.05;1.95;;;;;;;;;;5029645;28;20038;-73
2022/11/20 03:26:50;;;;;;;0.88;0.88;;;;;;;;;;5028074;28;20037;-74
2022/11/20 03:29:15;;;;;;;0.40;0.40;;;-1.20;99.90;;;;;;5029510;28;20044;-73
2022/11/20 03:31:41;;;;;;;0.40;0.40;;;;;;;;;;5029488;28;20025;-74
2022/11/20 03:34:09;;;;;;;0.40;0.40;;;-1.30;99.90;;;;;;5029503;28;20051;-74
2022/11/20 03:36:35;;;;;;;0.50;0.50;;;;;;;;;;5029457;28;20084;-74
2022/11/20 03:39:01;;;;;;;0.40;0.40;;;;;;;;;;5029224;28;20045;-74
2022/11/20 03:41:29;;;;;;;0.50;0.50;;;-0.90;99.90;;;;;;5027973;28;20113;-74
2022/11/20 03:43:58;;;;;;;2.20;2.05;;;-1.00;99.90;;;;;;5029167;28;20040;-73
2022/11/20 03:46:24;;;;;;;0.50;0.50;;;-0.80;99.90;;;;;;5029326;28;20045;-73
2022/11/20 03:48:50;;;;;;;0.50;0.50;;;-0.80;99.90;;;;;;5027827;28;20025;-73
2022/11/20 03:51:18;;;;;;;0.63;0.63;;;-0.80;99.90;;;;;;5029777;28;20430;-73
2022/11/20 03:53:45;;;;;;;1.15;1.15;;;-0.70;99.90;;;;;;5027834;28;20084;-73
2022/11/20 03:56:13;;;;;;;0.40;0.40;;;-0.60;99.90;;;;;;5028356;28;20033;-73
2022/11/20 03:58:40;;;;;;;1.17;1.17;;;-1.00;99.90;;;;;;5028165;28;20111;-73
2022/11/20 04:01:14;;;;;;;0.57;0.57;;;-0.90;99.90;;;;;;5028293;28;20073;-74
2022/11/20 04:03:41;;;;;;;0.50;0.50;;;-1.10;99.90;;;;;;5029342;28;20088;-74
2022/11/20 04:06:18;;;;;;;0.50;0.50;;;;;;;;;;5028115;28;20041;-74
2022/11/20 04:08:44;;;;;;;0.80;0.80;;;;;;;;;;5028252;28;20079;-73
2022/11/20 04:11:12;;;;;;;0.40;0.40;;;-1.00;99.90;;;;;;5027907;28;20061;-73
2022/11/20 04:13:38;;;;;;;1.20;1.13;;;-1.00;99.90;;;;;;5029346;28;20041;-73
2022/11/20 04:16:05;;;;;;;0.50;0.50;;;;;;;;;;5029588;28;20038;-73
2022/11/20 04:18:31;;;;;;;;;;;;;;;;;;5029760;28;20489;-74
2022/11/20 04:20:57;;;;;;;2.10;1.95;;;-1.00;99.90;;;;;;5027890;28;19962;-74
2022/11/20 04:23:23;;;;;;;;;;;-1.10;99.90;;;;;;5030150;28;20032;-74
2022/11/20 04:25:49;;;;;;;0.93;0.93;;;;;;;;;;5031674;28;19912;-74
2022/11/20 04:28:16;;;;;;;0.40;0.40;;;;;;;;;;5032667;28;20026;-73
2022/11/20 04:30:42;;;;;;;0.80;0.80;;;;;;;;;;5032736;28;20033;-74
2022/11/20 04:33:08;;;;;;;4.95;1.77;;;;;;;;;;5031093;28;20366;-74
2022/11/20 04:35:35;;;;;;;0.55;0.55;;;-1.20;99.90;;;;;;5031455;28;20423;-73
2022/11/20 04:38:00;;;;;;;0.50;0.50;;;-1.50;99.90;;;;;;5032648;28;20022;-73
2022/11/20 04:40:26;;;;;;;0.70;0.70;;;;;;;;;;5032578;28;20033;-73
2022/11/20 04:42:52;;;;;;;0.40;0.40;;;-1.10;99.90;;;;;;5030818;28;20238;-73
2022/11/20 04:45:18;;;;;;;1.23;1.23;;;;;;;;;;5031184;28;20056;-73
2022/11/20 04:47:44;;;;;;;0.60;0.60;;;-1.20;99.90;;;;;;5031051;28;20120;-74
2022/11/20 04:50:10;;;;;;;1.80;1.70;;;;;;;;;;5031165;28;20282;-74
2022/11/20 04:52:36;;;;;;;0.40;0.40;;;;;;;;;;5030975;28;20345;-74
2022/11/20 04:55:01;;;;;;;3.05;2.05;;;;;;;;;;5032081;28;20056;-74
2022/11/20 04:57:27;;;;;;;1.05;1.05;;;;;;;;;;5032102;28;20119;-74
2022/11/20 04:59:53;;;;;;;1.95;1.85;;;;;;;;;;5030548;28;20057;-74
2022/11/20 05:02:19;;;;;;;0.55;0.55;;;;;;;;;;5032095;28;20025;-74
2022/11/20 05:04:45;;;;;;;3.10;2.92;;;;;;;;;;5031542;28;20095;-73
2022/11/20 05:07:11;;;;;;;0.95;0.95;;;-1.40;99.90;;;;;;5032005;28;20033;-73
2022/11/20 05:09:36;;;;;;;2.23;2.13;;;-1.50;99.90;;;;;;5031586;28;20048;-74
2022/11/20 05:12:02;;;;;;;2.70;2.57;;;;;;;;;;5031812;28;20538;-74
2022/11/20 05:14:28;;;;;;;0.77;0.77;;;-1.80;99.90;;;;;;5032117;28;20357;-73
2022/11/20 05:16:54;;;;;;;0.60;0.60;;;-1.60;99.90;;;;;;5030115;28;20033;-73
2022/11/20 05:19:20;;;;;;;0.53;0.53;;;;;;;;;;5030434;28;20751;-73
2022/11/20 05:21:46;;;;;;;0.57;0.57;;;;;;;;;;5030275;28;20385;-73
2022/11/20 05:24:12;;;;;;;0.77;0.77;;;;;;;;;;5029927;28;20030;-72
2022/11/20 05:26:38;;;;;;;1.15;1.15;;;;;;;;;;5029934;28;20025;-73
2022/11/20 05:29:03;;;;;;;1.17;1.17;;;0.80;99.90;;;;;;5031352;28;20065;-73
2022/11/20 05:31:29;;;;;;;1.20;1.07;;;;;;;;;;5031291;28;20064;-73
2022/11/20 05:33:56;;;;;;;0.93;0.93;;;-1.30;99.90;;;;;;5031007;28;20294;-73
2022/11/20 05:36:22;;;;;;;0.63;0.63;;;;;;;;;;5031155;28;20045;-74
2022/11/20 05:38:48;;;;;;;0.98;0.98;;;;;;;;;;5031266;28;20087;-73
2022/11/20 05:41:16;;;;;;;1.30;1.20;;;-1.20;99.90;;;;;;5031683;28;20045;-73
2022/11/20 05:43:44;;;;;;;0.43;0.43;;;-1.20;99.90;;;;;;5031095;28;20038;-74
2022/11/20 05:46:12;;;;;;;1.15;1.15;;;-1.10;99.90;;;;;;5030015;28;20026;-73
2022/11/20 05:48:38;;;;;;;0.50;0.50;;;;;;;;;;5029947;28;20029;-74
2022/11/20 05:51:05;;;;;;;1.58;1.48;;;;;;;;;;5031684;28;20408;-74
2022/11/20 05:53:32;;;;;;;0.68;0.68;;;;;;;;;;5030941;28;20043;-74
2022/11/20 05:56:08;;;;;;;0.50;0.50;;;;;;;;;;5031140;28;20291;-74
2022/11/20 05:58:34;;;;;;;0.40;0.40;;;;;;;;;;5029428;28;20025;-74
2022/11/20 06:01:04;;;;;;;0.40;0.40;;;;;;;;;;5029283;28;20036;-73
2022/11/20 06:03:30;;;;;;;1.85;1.75;;;;;;;;;;5030735;28;20104;-73
2022/11/20 06:05:56;;;;;;;0.40;0.40;;;;;;;;;;5030846;28;20433;-74
2022/11/20 06:08:22;;;;;;;3.25;2.13;;;;;;;;;;5030430;28;20021;-74
2022/11/20 06:10:48;;;;;;;0.82;0.82;;;;;;;;;;5030569;28;20058;-73
2022/11/20 06:13:14;;;;;;;0.55;0.55;;;;;;;;;;5030481;28;20472;-74
2022/11/20 06:15:40;;;;;;;1.27;1.27;;;;;;;;;;5029226;28;20041;-73
2022/11/20 06:18:06;;;;;;;0.47;0.47;;;;;;;;;;5012939;28;20128;-73
2022/11/20 06:20:32;;;;;;;0.73;0.73;;;;;;;;;;5029205;28;20136;-74
2022/11/20 06:22:58;;;;;;;0.40;0.40;;;;;;;;;;5030657;28;20034;-74
2022/11/20 06:25:24;;;;;;;0.65;0.65;;;;;;;;;;5030733;28;20029;-74
2022/11/20 06:27:50;;;;;;;1.63;1.52;;;;;;;;;;5029052;28;20018;-75
2022/11/20 06:30:16;;;;;;;0.68;0.68;;;;;;;;;;5030284;28;20081;-74
2022/11/20 06:32:42;;;;;;;0.82;0.82;;;;;;;;;;5030161;28;20025;-73
2022/11/20 06:35:08;;;;;;;0.68;0.68;;;;;;;;;;5030337;28;20105;-74
2022/11/20 06:37:34;;;;;;;0.50;0.50;;;;;;;;;;5030144;28;20049;-74
2022/11/20 06:40:00;;;;;;;0.40;0.40;;;;;;;;;;5030249;28;20418;-73
2022/11/20 06:42:26;;;;;;;0.40;0.40;;;;;;;;;;5030170;28;20064;-74
2022/11/20 06:44:52;;;;;;;0.45;0.45;;;;;;;;;;5029593;28;20077;-74
2022/11/20 06:47:18;;;;;;;1.23;1.17;;;;;;;;;;5030236;28;20032;-74
2022/11/20 06:49:44;;;;;;;0.80;0.80;;;;;;;;;;5030424;28;20091;-73
2022/11/20 06:52:10;;;;;;;0.40;0.40;;;;;;;;;;5030141;28;20777;-73
2022/11/20 06:54:36;;;;;;;0.80;0.80;;;;;;;;;;5028546;28;20038;-74
2022/11/20 06:57:02;;;;;;;0.40;0.40;;;;;;;;;;5030666;28;20036;-73
2022/11/20 06:59:28;;;;;;;0.50;0.50;;;;;;;;;;5028595;28;20072;-74
2022/11/20 07:01:53;;;;;;;1.25;1.25;;;-0.50;99.90;;;;;;5030334;28;20508;-73
2022/11/20 07:04:19;;;;;;;0.43;0.43;;;;;;;;;;5028248;28;20150;-72
2022/11/20 07:06:45;;;;;;;0.40;0.40;;;;;;;;;;5030029;28;20025;-73
2022/11/20 07:09:11;;;;;;;0.85;0.85;;;;;;;;;;5030035;28;20034;-74
2022/11/20 07:11:37;;;;;;;1.33;1.33;;;;;;;;;;5030041;28;20045;-74
2022/11/20 07:14:03;;;;;;;0.60;0.60;;;;;;;;;;5030055;28;20025;-74
2022/11/20 07:16:29;;;;;;;1.33;1.33;;;;;;;;;;5030081;28;20026;-75
2022/11/20 07:18:55;;;;;;;0.50;0.50;;;;;;;;;;5030035;28;20167;-74
2022/11/20 07:21:21;;;;;;;3.20;2.88;;;;;;;;;;5029727;28;20389;-74
2022/11/20 07:23:47;;;;;;;0.40;0.40;;;;;;;;;;5028228;28;20044;-73
2022/11/20 07:26:13;;;;;;;0.43;0.43;;;;;;;;;;5028547;28;20425;-73
2022/11/20 07:28:39;;;;;;;0.65;0.65;;;;;;;;;;5029675;28;20091;-74
2022/11/20 07:31:07;;;;;;;0.40;0.40;;;;;;;;;;5028480;28;20101;-74
2022/11/20 07:33:33;;;;;;;0.50;0.50;;;;;;;;;;5029540;28;20025;-74
2022/11/20 07:36:00;;;;;;;0.40;0.40;;;;;;;;;;5028396;28;20500;-74
2022/11/20 07:38:25;;;;;;;0.50;0.50;;;;;;;;;;5029506;28;20407;-73
2022/11/20 07:40:55;;;;;;;0.82;0.82;;;;;;;;;;5029810;28;20161;-74
2022/11/20 07:43:21;;;;;;;0.75;0.75;;;;;;;;;;5029621;28;20112;-73
2022/11/20 07:45:47;;;;;;;0.40;0.40;;;;;;;;;;5029706;28;20117;-74
2022/11/20 07:48:13;;;;;;;1.00;1.00;;;;;;;;;;5028257;28;20049;-74
2022/11/20 07:50:39;;;;;;;0.40;0.40;;;;;;;;;;5029924;28;20465;-74
2022/11/20 07:53:05;;;;;;;0.50;0.50;;;;;;;;;;5029380;28;20377;-73
2022/11/20 07:55:32;;;;;;;0.80;0.80;;;;;;;;;;5029471;28;20048;-74
2022/11/20 07:57:59;;;;;;;0.40;0.40;;;;;;;;;;5029912;28;20175;-74
2022/11/20 08:00:25;;;;;;;0.40;0.40;;;;;;;;;;5033676;28;20473;-74
2022/11/20 08:02:51;;;;;;;0.50;0.50;;;;;;;;;;5031509;28;20037;-73
2022/11/20 08:05:17;;;;;;;0.40;0.40;;;;;;;;;;5031814;28;20527;-74
2022/11/20 08:07:43;;;;;;;0.40;0.40;;;-0.20;99.90;;;;;;5033030;28;20018;-74
2022/11/20 08:10:11;;;;;;;0.40;0.40;;;-0.20;99.90;;;;;;5032878;28;20064;-74
2022/11/20 08:15:32;;;;;;;0.50;0.50;;;;;;;;;;5033309;28;20091;-74
2022/11/20 08:18:05;;;;;;;0.75;0.75;;;;;;;;;;5032691;28;20029;-73
2022/11/20 08:20:31;;;;;;;0.40;0.40;;;;;;;;;;5032848;28;20117;-74
2022/11/20 08:23:05;;;;;;;0.40;0.40;;;;;;;;;;5030908;28;20060;-74
2022/11/20 08:25:31;;;;;;;0.40;0.40;;;;;;;;;;5032577;28;20040;-74
2022/11/20 08:27:58;;;;;;;1.23;1.15;;;-0.30;99.90;;;;;;5032534;28;20029;-74
2022/11/20 08:30:24;;;;;;;;;;;;;;;;;;5033240;28;20385;-75
2022/11/20 08:32:50;;;;;;;0.40;0.40;;;;;;;;;;5032975;28;20292;-74
2022/11/20 08:35:16;;;;;;;0.40;0.40;;;;;;;;;;5032793;28;20048;-74
2022/11/20 08:37:42;;;;;;;0.40;0.40;;;;;;;;;;5031393;28;20033;-73
2022/11/20 08:40:11;;;;;;;0.40;0.40;;;;;;;;;;5031047;28;20044;-74
2022/11/20 08:42:37;;;;;;;0.60;0.60;;;;;;;;;;5032913;28;20022;-73
2022/11/20 08:45:03;;;;;;;0.40;0.40;;;;;;;;;;5032703;28;20041;-73
2022/11/20 08:50:16;;;;;;;1.50;1.40;;;-0.10;99.90;;;;;;5127954;27;20391;-73
2022/11/20 08:52:42;;;;;;;0.85;0.85;;;;;;;;;;5126553;28;20127;-74
2022/11/20 08:55:08;;;;;;;0.88;0.88;;;;;;;;;;5128215;28;20107;-74
2022/11/20 08:57:35;;;;;;;2.95;2.75;;;;;;;;;;5127887;28;20035;-75
2022/11/20 09:00:01;;;;;;;;;;;;;;;;;;5128176;28;20467;-74
2022/11/20 09:02:28;;;;;;;0.50;0.50;;;;;;;;;;5128038;28;19934;-74
2022/11/20 09:04:54;;;;;;;0.40;0.40;;;;;;;;;;5128130;28;20027;-74
2022/11/20 09:07:20;;;;;;;0.50;0.50;;;;;;;;;;5127679;28;20527;-74
2022/11/20 09:09:46;;;;;;;0.82;0.82;;;;;;;;;;5126594;28;20387;-74
2022/11/20 09:12:12;;;;;;;0.40;0.40;;;;;;;;;;5127537;28;20139;-74
2022/11/20 09:14:38;;;;;;;0.60;0.60;;;;;;;;;;5126561;28;20074;-74
2022/11/20 09:17:04;;;;;;;1.52;1.52;;;;;;;;;;5127412;28;20038;-74
2022/11/20 09:19:29;;;;;;;0.40;0.40;;;-0.30;99.90;;;;;;5126131;28;20040;-73
2022/11/20 09:21:55;;;;;;;0.50;0.50;;;;;;;;;;5125992;28;20023;-72
2022/11/20 09:24:21;;;;;;;0.40;0.40;;;;;;;;;;5125889;28;20535;-74
2022/11/20 09:26:47;;;;;;;0.52;0.52;;;;;;;;;;5127355;28;20475;-74
2022/11/20 09:29:13;;;;;;;0.60;0.60;;;;;;;;;;5127355;28;20055;-73
2022/11/20 09:31:39;;;;;;;0.52;0.52;;;-0.10;99.90;;;;;;5127135;28;20030;-73
2022/11/20 09:34:05;;;;;;;0.60;0.60;;;;;;;;;;5127596;28;20031;-73
2022/11/20 09:36:31;;;;;;;0.40;0.40;;;;;;;;;;5127314;28;20027;-73
2022/11/20 09:38:57;;;;;;;0.40;0.40;;;;;;;;;;5127126;28;20118;-74
2022/11/20 09:41:23;;;;;;;0.50;0.50;;;;;;;;;;5125789;28;20031;-74
2022/11/20 09:44:11;;;;;;;0.40;0.40;;;;;;;;;;5127205;28;20625;-74
2022/11/20 09:46:37;;;;;;;0.50;0.50;;;;;;;;;;5126930;28;20038;-74
2022/11/20 09:49:21;;;;;;;1.75;1.65;;;;;;;;;;5126776;28;20131;-73
2022/11/20 09:51:53;;;;;;;0.98;0.98;;;;;;;;;;5126956;28;20035;-75
2022/11/20 09:54:26;;;;;;;1.27;1.27;;;-0.10;99.90;;;;;;5125382;28;20032;-74
2022/11/20 09:56:55;;;;;;;1.02;1.02;;;;;;;;;;5126865;28;20027;-73
2022/11/20 09:59:41;;;;;;;0.50;0.50;;;;;;;;;;5126613;28;20042;-74
2022/11/20 10:02:30;;;;;;;0.40;0.40;;;0.20;99.90;;;;;;5112917;28;20036;-74
2022/11/20 10:05:23;;;;;;;0.60;0.60;;;0.20;99.90;;;;;;5112018;28;20020;-74
2022/11/20 10:07:58;;;;;;;1.25;1.15;;;0.00;99.90;;;;;;5111643;28;20231;-74
2022/11/20 10:10:33;;;;;;;0.50;0.50;;;;;;;;;;5112743;28;20043;-74
2022/11/20 10:13:07;;;;;;;1.25;1.15;;;;;;;;;;5112710;28;20027;-73
2022/11/20 10:16:01;;;;;;;0.52;0.52;;;0.10;99.90;;;;;;5112826;28;20379;-74
2022/11/20 10:18:47;;;;;;;0.40;0.40;;;;;;;;;;5112699;28;20085;-74
2022/11/20 10:21:22;;;;;;;0.77;0.77;;;;;;;;;;5112642;28;20205;-74
2022/11/20 10:24:10;;;;;;;1.35;1.35;;;;;;;;;;5112327;28;20032;-74
2022/11/20 10:26:48;;;;;;;0.65;0.65;;;;;;;;;;5112508;28;20024;-75
2022/11/20 10:29:16;;;;;;;0.90;0.90;;;;;;;;;;5112912;28;20041;-74
2022/11/20 10:31:43;;;;;;;0.40;0.40;;;;;;;;;;5112653;28;20160;-73
2022/11/20 10:34:15;;;;;;;0.75;0.75;;;;;;;;;;5112665;28;20046;-74
2022/11/20 10:36:44;;;;;;;0.80;0.80;;;;;;;;;;5112337;28;20031;-74
2022/11/20 10:39:23;;;;;;;0.47;0.47;;;;;;;;;;5112150;28;20031;-74
2022/11/20 10:41:51;;;;;;;0.40;0.40;;;;;;;;;;5110768;28;20036;-73
2022/11/20 10:45:00;;;;;;;0.77;0.77;;;-0.10;99.90;;;;;;5111122;28;20031;-74
2022/11/20 10:47:10;;;;;;;0.60;0.60;;;0.20;99.90;;;;;;5112653;28;20032;-74
2022/11/20 10:49:36;;;;;;;1.65;1.40;;;;;;;;;;5111770;28;20056;-74
2022/11/20 10:52:20;;;;;;;0.47;0.47;;;;;;;;;;5111992;28;20119;-74
2022/11/20 10:55:26;;;;;;;0.40;0.40;;;0.20;99.90;;;;;;5110458;28;20113;-74
2022/11/20 10:58:13;;;;;;;1.00;1.00;;;0.30;99.90;;;;;;5111755;28;20035;-74
2022/11/20 11:00:39;;;;;;;0.50;0.50;;;;;;;;;;5111744;28;20076;-74
2022/11/20 11:03:18;;;;;;;0.40;0.40;;;;;;;;;;5111741;28;20106;-74
2022/11/20 11:06:03;;;;;;;0.50;0.50;;;;;;;;;;5111576;28;20023;-73
2022/11/20 11:08:33;;;;;;;0.50;0.50;;;;;;;;;;5111505;28;20039;-73
2022/11/20 11:11:01;;;;;;;0.40;0.40;;;;;;;;;;5111572;28;20046;-74
2022/11/20 11:13:31;;;;;;;0.50;0.50;;;-0.10;99.90;;;;;;5109390;28;20157;-73
2022/11/20 11:15:57;;;;;;;0.55;0.55;;;;;;;;;;5111638;28;20115;-74
2022/11/20 11:18:33;;;;;;;0.65;0.65;;;;;;;;;;5111335;28;20031;-74
2022/11/20 11:21:00;;;;;;;0.63;0.63;;;;;;;;;;5109853;28;20035;-74
2022/11/20 11:23:36;;;;;;;0.50;0.50;;;;;;;;;;5109733;28;20034;-74
2022/11/20 11:26:04;;;;;;;0.40;0.40;;;;;;;;;;5111207;28;20032;-74
2022/11/20 11:28:30;;;;;;;0.50;0.50;;;;;;;;;;5111141;28;20032;-76
2022/11/20 11:30:56;;;;;;;0.50;0.50;;;;;;;;;;5111403;28;20597;-78
2022/11/20 11:33:24;;;;;;;1.02;1.02;;;;;;;;;;5111301;28;20027;-77
2022/11/20 11:35:52;;;;;;;0.50;0.50;;;-0.10;99.90;;;;;;5111104;28;20059;-76
2022/11/20 11:38:34;;;;;;;1.08;1.08;;;;;;;;;;5111371;28;20019;-78
2022/11/20 11:41:01;;;;;;;1.05;1.05;;;;;;;;;;5111675;28;20853;-78
2022/11/20 11:46:24;;;;;;;0.50;0.50;;;;;;;;;;5112142;28;20058;-77
2022/11/20 11:49:03;;;;;;;0.40;0.40;;;0.10;99.90;;;;;;5111379;28;20066;-77
2022/11/20 11:51:33;;;;;;;0.50;0.50;;;;;;;;;;5111343;28;20035;-77
2022/11/20 11:53:59;;;;;;;0.73;0.73;;;;;;;;;;5111035;28;20070;-78
2022/11/20 11:56:26;;;;;;;0.50;0.50;;;;;;;;;;5109603;28;20032;-78
2022/11/20 11:58:52;;;;;;;0.40;0.40;;;;;;;;;;5110867;28;20038;-77
2022/11/20 12:01:35;;;;;;;0.45;0.45;;;;;;;;;;5110728;28;20039;-78
2022/11/20 12:04:01;;;;;;;0.50;0.50;;;;;;;;;;5110922;28;20028;-75
2022/11/20 12:06:29;;;;;;;0.40;0.40;;;;;;;;;;5110860;28;20043;-77
2022/11/20 12:09:01;;;;;;;0.50;0.50;;;;;;;;;;5109059;28;20114;-77
2022/11/20 12:11:49;;;;;;;0.50;0.50;;;0.10;99.90;;;;;;5110904;28;20039;-77
2022/11/20 12:14:27;;;;;;;0.40;0.40;;;;;;;;;;5110685;28;20494;-77
2022/11/20 12:16:55;;;;;;;0.50;0.50;;;;;;;;;;5111072;28;20043;-76
2022/11/20 12:19:21;;;;;;;0.88;0.88;;;;;;;;;;5110430;28;20048;-77
2022/11/20 12:22:05;;;;;;;0.40;0.40;;;0.10;99.90;;;;;;5110796;28;20466;-78
2022/11/20 12:24:40;;;;;;;0.50;0.50;;;;;;;;;;5110250;28;20035;-77
2022/11/20 12:27:15;;;;;;;0.65;0.65;;;-0.10;99.90;;;;;;5110647;28;20137;-77
2022/11/20 12:30:07;;;;;;;0.50;0.50;;;;;;;;;;5110107;28;20031;-76
2022/11/20 12:32:33;;;;;;;0.40;0.40;;;;;;;;;;5107558;28;20048;-77
2022/11/20 12:35:13;;;;;;;0.40;0.40;;;;;;;;;;5110127;28;20027;-78
2022/11/20 12:38:16;;;;;;;0.60;0.60;;;-0.40;99.90;;;;;;5108917;28;20028;-77
2022/11/20 12:40:42;;;;;;;0.50;0.50;;;;;;;;;;5110621;28;20515;-78
2022/11/20 12:46:06;;;;;;;0.50;0.50;;;;;;;;;;5110685;28;20061;-77
2022/11/20 12:48:45;;;;;;;0.40;0.40;;;-0.50;99.90;;;;;;5110487;28;20031;-76
2022/11/20 12:51:10;;;;;;;0.50;0.50;;;;;;;;;;5110869;28;20112;-76
2022/11/20 12:53:42;;;;;;;0.40;0.40;;;;;;;;;;5108836;28;20106;-78
2022/11/20 12:56:17;;;;;;;0.50;0.50;;;;;;;;;;5110254;28;20475;-79
2022/11/20 12:59:06;;;;;;;0.50;0.50;;;;;;;;;;5110424;28;20031;-77
2022/11/20 13:01:51;;;;;;;0.50;0.50;;;-0.30;99.90;;;;;;5108508;28;20428;-77
2022/11/20 13:04:35;;;;;;;0.50;0.50;;;;;;;;;;5110378;28;20020;-78
2022/11/20 13:07:11;;;;;;;0.45;0.45;;;-0.40;99.90;;;;;;5109023;28;20058;-79
2022/11/20 13:09:41;;;;;;;0.40;0.40;;;;;;;;;;5110179;28;20379;-77
2022/11/20 13:12:14;;;;;;;0.40;0.40;;;;;;;;;;5110405;28;20040;-77
2022/11/20 13:14:42;;;;;;;0.80;0.80;;;;;;;;;;5110046;28;20057;-77
2022/11/20 13:17:19;;;;;;;0.40;0.40;;;;;;;;;;5110584;28;20388;-77
2022/11/20 13:19:54;;;;;;;0.40;0.40;;;-0.40;99.90;;;;;;5109982;28;20027;-78
2022/11/20 13:22:42;;;;;;;0.50;0.50;;;;;;;;;;5109868;28;20565;-77
2022/11/20 13:25:32;;;;;;;0.40;0.40;;;;;;;;;;5108784;28;20032;-77
2022/11/20 13:27:59;;;;;;;0.57;0.57;;;;;;;;;;5101868;28;20048;-78
2022/11/20 13:30:26;;;;;;;0.40;0.40;;;-0.60;99.90;;;;;;5110121;28;20391;-79
2022/11/20 13:33:33;;;;;;;0.47;0.47;;;-0.60;99.90;;;;;;5110059;28;20378;-77
2022/11/20 13:36:21;;;;;;;0.50;0.50;;;;;;;;;;5111884;28;20024;-77
2022/11/20 13:38:49;;;;;;;1.67;1.58;;;;;;;;;;5114436;28;20361;-77
2022/11/20 13:41:35;;;;;;;0.50;0.50;;;;;;;;;;5114300;28;20059;-77
2022/11/20 13:44:10;;;;;;;0.50;0.50;;;;;;;;;;5113960;28;20142;-76
2022/11/20 13:46:38;;;;;;;2.00;0.93;;;;;;;;;;5112464;28;20032;-77
2022/11/20 13:49:30;;;;;;;0.43;0.43;;;;;;;;;;5113697;28;20105;-79
2022/11/20 13:52:15;;;;;;;0.70;0.70;;;;;;;;;;5089782;28;20494;-77
2022/11/20 13:54:51;;;;;;;0.40;0.40;;;;;;;;;;5113739;28;20470;-78
2022/11/20 13:57:31;;;;;;;0.40;0.40;;;;;;;;;;5112402;28;20177;-79
2022/11/20 14:00:17;;;;;;;3.40;2.78;;;;;;;;;;5114089;28;20821;-78
2022/11/20 14:02:47;;;;;;;0.70;0.70;;;-0.50;99.90;;;;;;5112333;28;20107;-77
2022/11/20 14:05:22;;;;;;;0.40;0.40;;;;;;;;;;5113529;28;20028;-77
2022/11/20 14:07:50;;;;;;;0.40;0.40;;;-0.70;99.90;;;;;;5113787;28;20064;-79
2022/11/20 14:10:27;;;;;;;0.75;0.75;;;;;;;;;;5112045;28;20040;-78
2022/11/20 14:12:53;;;;;;;0.60;0.60;;;;;;;;;;5113794;28;20024;-76
2022/11/20 14:15:28;;;;;;;0.73;0.73;;;;;;;;;;5113379;28;20031;-76
2022/11/20 14:17:55;;;;;;;0.60;0.60;;;;;;;;;;5113578;28;20024;-78
2022/11/20 14:20:25;;;;;;;0.60;0.60;;;;;;;;;;5108634;28;20032;-77
2022/11/20 14:22:51;;;;;;;1.08;1.08;;;;;;;;;;5102813;28;20027;-68
2022/11/20 14:25:17;;;;;;;0.40;0.40;;;;;;;;;;5104821;28;20051;-68
2022/11/20 14:27:51;;;;;;;0.40;0.40;;;-0.10;99.90;;;;;;5100435;28;20059;-68
2022/11/20 14:30:22;;;;;;;0.38;0.38;;;;;;;;;;5106882;28;20674;-68
2022/11/20 14:32:49;;;;;;;0.55;0.55;;;0.00;99.90;;;;;;5105262;28;20060;-67